sensor_id;sensor_type;location;lat;lon;timestamp;pressure;altitude;pressure_sealevel;temperature;humidity
3968;BME280;9221;42.646;23.380;2023-04-03T00:01:01;93931.50;;;9.59;66.04
3968;BME280;9221;42.646;23.380;2023-04-03T00:03:27;93925.44;;;9.75;65.45
3968;BME280;9221;42.646;23.380;2023-04-03T00:05:52;93935.97;;;9.75;65.23
3968;BME280;9221;42.646;23.380;2023-04-03T00:08:18;93921.66;;;9.70;65.83
3968;BME280;9221;42.646;23.380;2023-04-03T00:10:43;93922.81;;;9.67;65.83
3968;BME280;9221;42.646;23.380;2023-04-03T00:13:09;93773.72;;;8.66;66.44
3968;BME280;9221;42.646;23.380;2023-04-03T00:15:35;93894.31;;;9.46;66.33
3968;BME280;9221;42.646;23.380;2023-04-03T00:18:02;93871.03;;;9.25;66.54
3968;BME280;9221;42.646;23.380;2023-04-03T00:20:27;93897.19;;;9.26;66.80
3968;BME280;9221;42.646;23.380;2023-04-03T00:22:53;93887.13;;;9.13;67.53
3968;BME280;9221;42.646;23.380;2023-04-03T00:25:19;93832.41;;;8.74;67.24
3968;BME280;9221;42.646;23.380;2023-04-03T00:27:45;93872.06;;;8.89;67.71
3968;BME280;9221;42.646;23.380;2023-04-03T00:30:14;93898.28;;;9.15;67.91
3968;BME280;9221;42.646;23.380;2023-04-03T00:32:39;93830.78;;;8.81;67.46
3968;BME280;9221;42.646;23.380;2023-04-03T00:35:06;93881.09;;;8.87;68.60
3968;BME280;9221;42.646;23.380;2023-04-03T00:37:31;93838.16;;;8.43;68.95
3968;BME280;9221;42.646;23.380;2023-04-03T00:39:57;93904.06;;;8.76;69.47
3968;BME280;9221;42.646;23.380;2023-04-03T00:42:23;93833.56;;;8.45;69.06
3968;BME280;9221;42.646;23.380;2023-04-03T00:47:16;93881.69;;;8.72;69.67
3968;BME280;9221;42.646;23.380;2023-04-03T00:49:42;93741.19;;;7.97;69.05
3968;BME280;9221;42.646;23.380;2023-04-03T00:52:15;93827.44;;;8.63;68.48
3968;BME280;9221;42.646;23.380;2023-04-03T00:54:42;93918.50;;;9.07;68.06
3968;BME280;9221;42.646;23.380;2023-04-03T00:57:09;93891.84;;;9.02;68.03
3968;BME280;9221;42.646;23.380;2023-04-03T00:59:39;93792.16;;;8.13;68.84
3968;BME280;9221;42.646;23.380;2023-04-03T01:02:07;93880.06;;;8.79;69.16
3968;BME280;9221;42.646;23.380;2023-04-03T01:04:36;93892.47;;;8.95;69.18
3968;BME280;9221;42.646;23.380;2023-04-03T01:07:10;93859.06;;;8.88;68.85
3968;BME280;9221;42.646;23.380;2023-04-03T01:09:36;93838.34;;;8.76;68.49
3968;BME280;9221;42.646;23.380;2023-04-03T01:12:27;93876.31;;;9.25;67.64
3968;BME280;9221;42.646;23.380;2023-04-03T01:14:55;93853.56;;;9.07;68.11
3968;BME280;9221;42.646;23.380;2023-04-03T01:25:47;93911.84;;;8.94;68.86
3968;BME280;9221;42.646;23.380;2023-04-03T01:28:17;93862.91;;;8.14;70.26
3968;BME280;9221;42.646;23.380;2023-04-03T01:33:27;93916.34;;;8.05;72.92
3968;BME280;9221;42.646;23.380;2023-04-03T01:35:53;93894.72;;;8.11;72.56
3968;BME280;9221;42.646;23.380;2023-04-03T01:38:18;93847.66;;;7.56;73.81
3968;BME280;9221;42.646;23.380;2023-04-03T01:40:44;93897.22;;;7.95;73.50
3968;BME280;9221;42.646;23.380;2023-04-03T01:43:09;93783.31;;;7.07;74.40
3968;BME280;9221;42.646;23.380;2023-04-03T01:45:35;93824.75;;;7.58;74.00
3968;BME280;9221;42.646;23.380;2023-04-03T01:48:00;93897.66;;;8.08;74.05
3968;BME280;9221;42.646;23.380;2023-04-03T01:50:26;93826.09;;;7.62;73.92
3968;BME280;9221;42.646;23.380;2023-04-03T01:52:51;93900.38;;;7.99;74.74
3968;BME280;9221;42.646;23.380;2023-04-03T01:55:17;93907.28;;;8.00;74.10
3968;BME280;9221;42.646;23.380;2023-04-03T01:57:42;93846.03;;;7.55;74.44
3968;BME280;9221;42.646;23.380;2023-04-03T02:00:08;93899.47;;;8.08;74.69
3968;BME280;9221;42.646;23.380;2023-04-03T02:02:34;93887.44;;;8.23;73.43
3968;BME280;9221;42.646;23.380;2023-04-03T02:04:59;93837.25;;;8.08;72.92
3968;BME280;9221;42.646;23.380;2023-04-03T02:07:25;93952.34;;;8.31;71.16
3968;BME280;9221;42.646;23.380;2023-04-03T02:09:50;93844.28;;;8.00;71.70
3968;BME280;9221;42.646;23.380;2023-04-03T02:12:16;93895.59;;;8.38;71.98
3968;BME280;9221;42.646;23.380;2023-04-03T02:14:41;93865.72;;;7.95;71.53
3968;BME280;9221;42.646;23.380;2023-04-03T02:17:06;93915.34;;;8.24;72.08
3968;BME280;9221;42.646;23.380;2023-04-03T02:19:34;93900.88;;;8.02;72.12
3968;BME280;9221;42.646;23.380;2023-04-03T02:22:01;93900.59;;;8.05;72.87
3968;BME280;9221;42.646;23.380;2023-04-03T02:24:27;93917.78;;;8.00;72.11
3968;BME280;9221;42.646;23.380;2023-04-03T02:26:52;93891.59;;;7.90;73.29
3968;BME280;9221;42.646;23.380;2023-04-03T02:29:18;93894.69;;;7.67;73.39
3968;BME280;9221;42.646;23.380;2023-04-03T02:31:43;93835.16;;;7.14;74.01
3968;BME280;9221;42.646;23.380;2023-04-03T02:34:09;93969.75;;;7.60;74.14
3968;BME280;9221;42.646;23.380;2023-04-03T02:36:34;93838.66;;;7.04;75.02
3968;BME280;9221;42.646;23.380;2023-04-03T02:39:00;93884.06;;;7.23;76.11
3968;BME280;9221;42.646;23.380;2023-04-03T02:41:25;93860.88;;;7.00;76.39
3968;BME280;9221;42.646;23.380;2023-04-03T02:43:57;93727.69;;;6.22;76.50
3968;BME280;9221;42.646;23.380;2023-04-03T02:46:22;93914.53;;;7.06;76.57
3968;BME280;9221;42.646;23.380;2023-04-03T02:48:47;93874.47;;;7.14;76.08
3968;BME280;9221;42.646;23.380;2023-04-03T02:51:13;93826.69;;;6.74;76.57
3968;BME280;9221;42.646;23.380;2023-04-03T02:53:38;93854.81;;;6.72;76.35
3968;BME280;9221;42.646;23.380;2023-04-03T02:56:04;93804.19;;;6.43;76.91
3968;BME280;9221;42.646;23.380;2023-04-03T02:58:29;93841.88;;;6.70;77.83
3968;BME280;9221;42.646;23.380;2023-04-03T03:00:55;93901.53;;;6.86;77.64
3968;BME280;9221;42.646;23.380;2023-04-03T03:03:20;93705.47;;;5.98;77.24
3968;BME280;9221;42.646;23.380;2023-04-03T03:05:45;93871.78;;;6.95;76.75
3968;BME280;9221;42.646;23.380;2023-04-03T03:08:13;93805.44;;;6.77;76.63
3968;BME280;9221;42.646;23.380;2023-04-03T03:10:38;93816.09;;;6.93;76.30
3968;BME280;9221;42.646;23.380;2023-04-03T03:13:04;93804.97;;;6.82;76.04
3968;BME280;9221;42.646;23.380;2023-04-03T03:15:30;93876.28;;;7.31;75.69
3968;BME280;9221;42.646;23.380;2023-04-03T03:17:55;93869.91;;;7.34;75.39
3968;BME280;9221;42.646;23.380;2023-04-03T03:20:20;93863.63;;;7.26;75.32
3968;BME280;9221;42.646;23.380;2023-04-03T03:22:46;93862.84;;;7.16;75.58
3968;BME280;9221;42.646;23.380;2023-04-03T03:25:12;93862.25;;;7.04;76.35
3968;BME280;9221;42.646;23.380;2023-04-03T03:27:37;93838.94;;;6.73;76.55
3968;BME280;9221;42.646;23.380;2023-04-03T03:30:03;93860.00;;;6.82;77.53
3968;BME280;9221;42.646;23.380;2023-04-03T03:32:29;93845.59;;;6.68;77.44
3968;BME280;9221;42.646;23.380;2023-04-03T03:34:55;93743.50;;;6.30;77.48
3968;BME280;9221;42.646;23.380;2023-04-03T03:37:20;93855.03;;;7.34;76.32
3968;BME280;9221;42.646;23.380;2023-04-03T03:39:45;93943.66;;;7.31;74.86
3968;BME280;9221;42.646;23.380;2023-04-03T03:42:11;93844.59;;;6.78;75.89
3968;BME280;9221;42.646;23.380;2023-04-03T03:44:36;93813.31;;;6.39;76.43
3968;BME280;9221;42.646;23.380;2023-04-03T03:47:02;93848.06;;;6.41;76.68
3968;BME280;9221;42.646;23.380;2023-04-03T03:49:28;93846.38;;;7.06;75.87
3968;BME280;9221;42.646;23.380;2023-04-03T03:51:53;93827.00;;;6.61;75.95
3968;BME280;9221;42.646;23.380;2023-04-03T03:54:19;93881.50;;;6.48;76.89
3968;BME280;9221;42.646;23.380;2023-04-03T03:56:44;93812.63;;;5.80;79.18
3968;BME280;9221;42.646;23.380;2023-04-03T03:59:12;93903.75;;;6.34;79.25
3968;BME280;9221;42.646;23.380;2023-04-03T04:01:37;93908.97;;;6.34;78.56
3968;BME280;9221;42.646;23.380;2023-04-03T04:04:03;93814.94;;;6.13;78.45
3968;BME280;9221;42.646;23.380;2023-04-03T04:06:28;93793.50;;;5.80;79.07
3968;BME280;9221;42.646;23.380;2023-04-03T04:08:53;93862.50;;;5.98;80.23
3968;BME280;9221;42.646;23.380;2023-04-03T04:11:19;93856.66;;;6.24;79.75
3968;BME280;9221;42.646;23.380;2023-04-03T04:13:45;93782.66;;;5.55;79.49
3968;BME280;9221;42.646;23.380;2023-04-03T04:16:11;93894.16;;;5.75;81.09
3968;BME280;9221;42.646;23.380;2023-04-03T04:18:36;93889.06;;;5.64;81.72
3968;BME280;9221;42.646;23.380;2023-04-03T04:21:02;93808.53;;;5.29;81.98
3968;BME280;9221;42.646;23.380;2023-04-03T04:23:27;93877.34;;;5.68;82.04
3968;BME280;9221;42.646;23.380;2023-04-03T04:25:53;93901.31;;;5.83;81.69
3968;BME280;9221;42.646;23.380;2023-04-03T04:28:18;93840.16;;;5.84;81.02
3968;BME280;9221;42.646;23.380;2023-04-03T04:30:44;93870.81;;;6.31;79.64
3968;BME280;9221;42.646;23.380;2023-04-03T04:33:10;93823.56;;;6.23;78.87
3968;BME280;9221;42.646;23.380;2023-04-03T04:35:35;93814.19;;;6.30;78.63
3968;BME280;9221;42.646;23.380;2023-04-03T04:38:01;93894.28;;;6.70;78.26
3968;BME280;9221;42.646;23.380;2023-04-03T04:40:27;93825.09;;;6.25;78.38
3968;BME280;9221;42.646;23.380;2023-04-03T04:42:53;93875.44;;;6.85;78.43
3968;BME280;9221;42.646;23.380;2023-04-03T04:45:18;93789.94;;;6.56;77.54
3968;BME280;9221;42.646;23.380;2023-04-03T04:47:44;93888.28;;;7.34;76.27
3968;BME280;9221;42.646;23.380;2023-04-03T04:50:10;93851.84;;;7.13;75.89
3968;BME280;9221;42.646;23.380;2023-04-03T04:52:37;93880.34;;;7.43;75.31
3968;BME280;9221;42.646;23.380;2023-04-03T04:55:03;93866.88;;;7.38;75.04
3968;BME280;9221;42.646;23.380;2023-04-03T04:57:29;93928.91;;;7.48;75.30
3968;BME280;9221;42.646;23.380;2023-04-03T04:59:54;93846.00;;;7.19;75.95
3968;BME280;9221;42.646;23.380;2023-04-03T05:02:19;93833.72;;;7.01;75.25
3968;BME280;9221;42.646;23.380;2023-04-03T05:04:45;93895.84;;;6.91;76.50
3968;BME280;9221;42.646;23.380;2023-04-03T05:07:10;93931.00;;;6.51;78.63
3968;BME280;9221;42.646;23.380;2023-04-03T05:09:35;93971.94;;;6.62;78.53
3968;BME280;9221;42.646;23.380;2023-04-03T05:12:01;93926.28;;;6.54;79.01
3968;BME280;9221;42.646;23.380;2023-04-03T05:14:28;93899.47;;;6.33;79.42
3968;BME280;9221;42.646;23.380;2023-04-03T05:16:53;93940.06;;;6.66;78.89
3968;BME280;9221;42.646;23.380;2023-04-03T05:19:22;93941.91;;;6.36;79.95
3968;BME280;9221;42.646;23.380;2023-04-03T05:21:47;93921.13;;;6.25;80.62
3968;BME280;9221;42.646;23.380;2023-04-03T05:24:13;93910.34;;;6.38;80.44
3968;BME280;9221;42.646;23.380;2023-04-03T05:26:40;93959.78;;;6.70;79.97
3968;BME280;9221;42.646;23.380;2023-04-03T05:29:05;93868.97;;;6.51;78.74
3968;BME280;9221;42.646;23.380;2023-04-03T05:31:31;93929.53;;;7.14;78.00
3968;BME280;9221;42.646;23.380;2023-04-03T05:33:56;93975.63;;;7.06;78.42
3968;BME280;9221;42.646;23.380;2023-04-03T05:36:22;93924.66;;;6.91;78.12
3968;BME280;9221;42.646;23.380;2023-04-03T05:38:48;93850.50;;;7.08;77.37
3968;BME280;9221;42.646;23.380;2023-04-03T05:41:14;93859.75;;;7.49;76.86
3968;BME280;9221;42.646;23.380;2023-04-03T05:43:39;93925.50;;;8.01;75.96
3968;BME280;9221;42.646;23.380;2023-04-03T05:46:12;93893.06;;;8.10;75.75
3968;BME280;9221;42.646;23.380;2023-04-03T05:48:38;93920.00;;;8.57;75.09
3968;BME280;9221;42.646;23.380;2023-04-03T05:51:05;93915.50;;;8.67;73.67
3968;BME280;9221;42.646;23.380;2023-04-03T05:53:33;93912.59;;;8.52;73.54
3968;BME280;9221;42.646;23.380;2023-04-03T05:56:00;93920.47;;;8.78;73.52
3968;BME280;9221;42.646;23.380;2023-04-03T05:58:26;93860.31;;;8.67;73.44
3968;BME280;9221;42.646;23.380;2023-04-03T06:00:51;93909.34;;;9.19;72.48
3968;BME280;9221;42.646;23.380;2023-04-03T06:03:17;93928.28;;;9.31;71.73
3968;BME280;9221;42.646;23.380;2023-04-03T06:05:42;93841.44;;;9.14;71.86
3968;BME280;9221;42.646;23.380;2023-04-03T06:08:08;93875.72;;;9.56;71.33
3968;BME280;9221;42.646;23.380;2023-04-03T06:10:34;93884.13;;;9.76;70.22
3968;BME280;9221;42.646;23.380;2023-04-03T06:12:59;93919.22;;;10.01;69.41
3968;BME280;9221;42.646;23.380;2023-04-03T06:15:25;93826.06;;;9.69;69.53
3968;BME280;9221;42.646;23.380;2023-04-03T06:17:50;93878.56;;;10.04;69.03
3968;BME280;9221;42.646;23.380;2023-04-03T06:20:16;93887.63;;;10.09;69.24
3968;BME280;9221;42.646;23.380;2023-04-03T06:22:41;93879.38;;;10.21;69.76
3968;BME280;9221;42.646;23.380;2023-04-03T06:25:07;93881.38;;;10.27;68.96
3968;BME280;9221;42.646;23.380;2023-04-03T06:27:34;93863.59;;;9.96;68.78
3968;BME280;9221;42.646;23.380;2023-04-03T06:29:59;93902.75;;;9.99;70.10
3968;BME280;9221;42.646;23.380;2023-04-03T06:32:25;93902.75;;;9.82;69.46
3968;BME280;9221;42.646;23.380;2023-04-03T06:34:51;93856.47;;;8.96;71.72
3968;BME280;9221;42.646;23.380;2023-04-03T06:37:20;93947.69;;;9.30;72.08
3968;BME280;9221;42.646;23.380;2023-04-03T06:39:46;93951.94;;;9.23;71.47
3968;BME280;9221;42.646;23.380;2023-04-03T06:42:11;93924.69;;;9.40;71.77
3968;BME280;9221;42.646;23.380;2023-04-03T06:44:37;93856.09;;;9.25;71.19
3968;BME280;9221;42.646;23.380;2023-04-03T06:47:03;93894.81;;;9.66;70.96
3968;BME280;9221;42.646;23.380;2023-04-03T06:49:28;93877.19;;;9.50;70.09
3968;BME280;9221;42.646;23.380;2023-04-03T06:51:54;93928.25;;;9.74;71.00
3968;BME280;9221;42.646;23.380;2023-04-03T06:54:20;93912.31;;;10.00;70.34
3968;BME280;9221;42.646;23.380;2023-04-03T06:56:46;93890.22;;;9.68;70.47
3968;BME280;9221;42.646;23.380;2023-04-03T06:59:12;93920.56;;;10.05;70.08
3968;BME280;9221;42.646;23.380;2023-04-03T07:01:40;93915.06;;;9.65;70.11
3968;BME280;9221;42.646;23.380;2023-04-03T07:04:07;93953.63;;;9.40;71.46
3968;BME280;9221;42.646;23.380;2023-04-03T07:06:32;93920.44;;;9.39;72.34
3968;BME280;9221;42.646;23.380;2023-04-03T07:08:59;93923.84;;;9.31;72.06
3968;BME280;9221;42.646;23.380;2023-04-03T07:11:24;93915.97;;;9.40;72.98
3968;BME280;9221;42.646;23.380;2023-04-03T07:13:51;93910.13;;;9.62;72.24
3968;BME280;9221;42.646;23.380;2023-04-03T07:16:17;93842.69;;;9.78;71.39
3968;BME280;9221;42.646;23.380;2023-04-03T07:18:42;93877.06;;;10.50;69.96
3968;BME280;9221;42.646;23.380;2023-04-03T07:21:07;93889.84;;;10.95;68.17
3968;BME280;9221;42.646;23.380;2023-04-03T07:23:33;93892.72;;;11.16;67.25
3968;BME280;9221;42.646;23.380;2023-04-03T07:25:58;93824.59;;;10.80;66.19
3968;BME280;9221;42.646;23.380;2023-04-03T07:28:24;93877.63;;;11.65;65.74
3968;BME280;9221;42.646;23.380;2023-04-03T07:30:52;93845.56;;;11.45;65.31
3968;BME280;9221;42.646;23.380;2023-04-03T07:33:19;93924.53;;;11.86;64.83
3968;BME280;9221;42.646;23.380;2023-04-03T07:35:45;93820.53;;;11.64;64.68
3968;BME280;9221;42.646;23.380;2023-04-03T07:38:11;93921.31;;;12.07;63.95
3968;BME280;9221;42.646;23.380;2023-04-03T07:40:37;93884.19;;;12.24;63.73
3968;BME280;9221;42.646;23.380;2023-04-03T07:43:03;93865.97;;;12.29;62.85
3968;BME280;9221;42.646;23.380;2023-04-03T07:45:28;93911.31;;;12.17;63.08
3968;BME280;9221;42.646;23.380;2023-04-03T07:47:54;93876.06;;;11.79;65.22
3968;BME280;9221;42.646;23.380;2023-04-03T07:50:19;93846.56;;;11.67;65.24
3968;BME280;9221;42.646;23.380;2023-04-03T07:52:46;93819.59;;;11.57;64.86
3968;BME280;9221;42.646;23.380;2023-04-03T07:55:12;93849.22;;;11.90;65.27
3968;BME280;9221;42.646;23.380;2023-04-03T07:57:37;93709.13;;;11.22;64.31
3968;BME280;9221;42.646;23.380;2023-04-03T08:00:04;93820.63;;;11.94;63.02
3968;BME280;9221;42.646;23.380;2023-04-03T08:02:30;93880.66;;;12.46;62.82
3968;BME280;9221;42.646;23.380;2023-04-03T08:04:57;93835.75;;;12.23;62.22
3968;BME280;9221;42.646;23.380;2023-04-03T08:07:22;93873.38;;;12.10;62.99
3968;BME280;9221;42.646;23.380;2023-04-03T08:09:48;93867.66;;;12.22;63.08
3968;BME280;9221;42.646;23.380;2023-04-03T08:12:14;93816.72;;;11.90;63.15
3968;BME280;9221;42.646;23.380;2023-04-03T08:14:40;93855.63;;;12.19;63.04
3968;BME280;9221;42.646;23.380;2023-04-03T08:17:06;93810.94;;;12.09;62.53
3968;BME280;9221;42.646;23.380;2023-04-03T08:19:34;93799.16;;;11.97;62.67
3968;BME280;9221;42.646;23.380;2023-04-03T08:22:00;93792.56;;;11.93;62.63
3968;BME280;9221;42.646;23.380;2023-04-03T08:24:28;93860.50;;;11.61;65.22
3968;BME280;9221;42.646;23.380;2023-04-03T08:26:53;93846.41;;;11.37;66.27
3968;BME280;9221;42.646;23.380;2023-04-03T08:29:19;93879.22;;;11.51;67.10
3968;BME280;9221;42.646;23.380;2023-04-03T08:31:46;93858.22;;;11.58;66.98
3968;BME280;9221;42.646;23.380;2023-04-03T08:34:11;93858.84;;;11.60;66.60
3968;BME280;9221;42.646;23.380;2023-04-03T08:36:38;93859.34;;;11.32;66.92
3968;BME280;9221;42.646;23.380;2023-04-03T08:39:04;93850.06;;;12.14;65.49
3968;BME280;9221;42.646;23.380;2023-04-03T08:41:36;93848.84;;;12.55;64.12
3968;BME280;9221;42.646;23.380;2023-04-03T08:44:14;93867.81;;;12.43;64.06
3968;BME280;9221;42.646;23.380;2023-04-03T08:49:28;93773.78;;;11.88;65.84
3968;BME280;9221;42.646;23.380;2023-04-03T08:51:57;93835.63;;;12.55;64.42
3968;BME280;9221;42.646;23.380;2023-04-03T08:54:30;93790.41;;;12.34;64.08
3968;BME280;9221;42.646;23.380;2023-04-03T08:57:00;93861.09;;;12.56;63.84
3968;BME280;9221;42.646;23.380;2023-04-03T08:59:29;93806.63;;;13.06;63.38
3968;BME280;9221;42.646;23.380;2023-04-03T09:01:59;93779.53;;;13.04;61.87
3968;BME280;9221;42.646;23.380;2023-04-03T09:04:27;93813.94;;;13.04;62.50
3968;BME280;9221;42.646;23.380;2023-04-03T09:07:03;93795.34;;;12.82;63.21
3968;BME280;9221;42.646;23.380;2023-04-03T09:09:39;93836.09;;;13.03;62.68
3968;BME280;9221;42.646;23.380;2023-04-03T09:12:57;93815.44;;;13.13;63.31
3968;BME280;9221;42.646;23.380;2023-04-03T09:21:07;93803.84;;;13.66;60.89
3968;BME280;9221;42.646;23.380;2023-04-03T09:23:49;93804.44;;;13.46;60.46
3968;BME280;9221;42.646;23.380;2023-04-03T09:26:23;93801.31;;;13.58;60.55
3968;BME280;9221;42.646;23.380;2023-04-03T09:28:53;93784.28;;;13.88;59.18
3968;BME280;9221;42.646;23.380;2023-04-03T09:31:26;93810.78;;;14.10;58.43
3968;BME280;9221;42.646;23.380;2023-04-03T09:33:56;93770.94;;;13.75;58.14
3968;BME280;9221;42.646;23.380;2023-04-03T09:36:42;93778.53;;;14.07;57.69
3968;BME280;9221;42.646;23.380;2023-04-03T09:39:18;93770.50;;;14.21;56.70
3968;BME280;9221;42.646;23.380;2023-04-03T09:42:11;93779.25;;;14.50;55.48
3968;BME280;9221;42.646;23.380;2023-04-03T09:44:40;93773.94;;;14.50;55.12
3968;BME280;9221;42.646;23.380;2023-04-03T09:47:32;93782.75;;;14.58;55.24
3968;BME280;9221;42.646;23.380;2023-04-03T09:52:45;93847.28;;;13.86;55.81
3968;BME280;9221;42.646;23.380;2023-04-03T09:55:20;93771.28;;;13.72;56.94
3968;BME280;9221;42.646;23.380;2023-04-03T09:57:53;93766.09;;;13.85;55.82
3968;BME280;9221;42.646;23.380;2023-04-03T10:00:22;93794.75;;;13.53;56.91
3968;BME280;9221;42.646;23.380;2023-04-03T10:02:54;93796.00;;;13.21;58.06
3968;BME280;9221;42.646;23.380;2023-04-03T10:05:33;93710.59;;;12.61;58.47
3968;BME280;9221;42.646;23.380;2023-04-03T10:10:44;93816.22;;;13.07;57.54
3968;BME280;9221;42.646;23.380;2023-04-03T10:13:16;93769.84;;;13.11;58.28
3968;BME280;9221;42.646;23.380;2023-04-03T10:18:34;93769.00;;;13.11;57.53
3968;BME280;9221;42.646;23.380;2023-04-03T10:24:42;93763.69;;;13.11;57.88
3968;BME280;9221;42.646;23.380;2023-04-03T10:27:15;93765.03;;;13.21;57.98
3968;BME280;9221;42.646;23.380;2023-04-03T10:30:41;93746.50;;;13.00;57.68
3968;BME280;9221;42.646;23.380;2023-04-03T10:40:44;93731.84;;;12.82;58.27
3968;BME280;9221;42.646;23.380;2023-04-03T10:48:33;93682.06;;;12.93;57.09
3968;BME280;9221;42.646;23.380;2023-04-03T10:51:05;93752.91;;;12.91;57.31
3968;BME280;9221;42.646;23.380;2023-04-03T11:02:24;93678.91;;;12.01;62.33
3968;BME280;9221;42.646;23.380;2023-04-03T11:05:06;93748.63;;;12.30;64.05
3968;BME280;9221;42.646;23.380;2023-04-03T11:07:40;93764.66;;;12.13;65.45
3968;BME280;9221;42.646;23.380;2023-04-03T11:10:44;93739.41;;;12.26;67.40
3968;BME280;9221;42.646;23.380;2023-04-03T11:13:21;93756.84;;;12.20;68.37
3968;BME280;9221;42.646;23.380;2023-04-03T11:15:49;93737.69;;;12.03;68.57
3968;BME280;9221;42.646;23.380;2023-04-03T11:18:25;93739.69;;;12.01;70.00
3968;BME280;9221;42.646;23.380;2023-04-03T11:21:07;93670.72;;;11.58;72.64
3968;BME280;9221;42.646;23.380;2023-04-03T11:23:39;93683.25;;;11.94;71.89
3968;BME280;9221;42.646;23.380;2023-04-03T11:26:11;93742.63;;;12.36;72.27
3968;BME280;9221;42.646;23.380;2023-04-03T11:28:37;93744.72;;;12.56;72.93
3968;BME280;9221;42.646;23.380;2023-04-03T11:31:15;93746.25;;;12.65;72.86
3968;BME280;9221;42.646;23.380;2023-04-03T11:36:31;93742.91;;;11.88;77.58
3968;BME280;9221;42.646;23.380;2023-04-03T11:39:06;93770.50;;;11.85;79.18
3968;BME280;9221;42.646;23.380;2023-04-03T11:41:35;93740.78;;;12.07;78.70
3968;BME280;9221;42.646;23.380;2023-04-03T11:44:06;93723.53;;;11.96;78.88
3968;BME280;9221;42.646;23.380;2023-04-03T11:46:57;93750.22;;;11.63;82.41
3968;BME280;9221;42.646;23.380;2023-04-03T12:05:50;93828.31;;;10.46;93.35
3968;BME280;9221;42.646;23.380;2023-04-03T12:13:37;93760.16;;;10.35;94.93
3968;BME280;9221;42.646;23.380;2023-04-03T12:16:05;93746.97;;;10.35;95.63
3968;BME280;9221;42.646;23.380;2023-04-03T12:29:37;93734.06;;;10.57;95.53
3968;BME280;9221;42.646;23.380;2023-04-03T12:45:53;93764.72;;;10.33;98.85
3968;BME280;9221;42.646;23.380;2023-04-03T12:48:26;93702.50;;;10.40;98.75
3968;BME280;9221;42.646;23.380;2023-04-03T12:50:52;93733.47;;;10.30;98.72
3968;BME280;9221;42.646;23.380;2023-04-03T12:53:19;93709.59;;;10.71;97.93
3968;BME280;9221;42.646;23.380;2023-04-03T12:55:46;93679.38;;;10.50;96.39
3968;BME280;9221;42.646;23.380;2023-04-03T13:03:27;93693.19;;;10.61;95.70
3968;BME280;9221;42.646;23.380;2023-04-03T13:06:01;93700.47;;;10.50;96.49
3968;BME280;9221;42.646;23.380;2023-04-03T13:08:27;93732.09;;;10.50;96.79
3968;BME280;9221;42.646;23.380;2023-04-03T13:11:04;93701.03;;;10.69;96.61
3968;BME280;9221;42.646;23.380;2023-04-03T13:13:31;93698.69;;;10.74;95.95
3968;BME280;9221;42.646;23.380;2023-04-03T13:15:56;93644.69;;;10.62;95.80
3968;BME280;9221;42.646;23.380;2023-04-03T13:20:48;93703.72;;;10.92;94.76
3968;BME280;9221;42.646;23.380;2023-04-03T13:23:15;93734.94;;;10.80;94.67
3968;BME280;9221;42.646;23.380;2023-04-03T13:25:44;93723.59;;;10.40;96.04
3968;BME280;9221;42.646;23.380;2023-04-03T13:28:17;93720.00;;;10.08;98.08
3968;BME280;9221;42.646;23.380;2023-04-03T13:30:56;93678.91;;;9.91;99.35
3968;BME280;9221;42.646;23.380;2023-04-03T13:33:25;93687.47;;;9.85;100.00
3968;BME280;9221;42.646;23.380;2023-04-03T13:35:56;93682.53;;;9.90;100.00
3968;BME280;9221;42.646;23.380;2023-04-03T13:38:26;93697.28;;;10.07;100.00
3968;BME280;9221;42.646;23.380;2023-04-03T13:40:57;93637.34;;;9.70;100.00
3968;BME280;9221;42.646;23.380;2023-04-03T13:43:28;93631.25;;;9.69;100.00
3968;BME280;9221;42.646;23.380;2023-04-03T13:48:22;93589.53;;;9.33;100.00
3968;BME280;9221;42.646;23.380;2023-04-03T13:53:17;93685.53;;;9.62;100.00
3968;BME280;9221;42.646;23.380;2023-04-03T13:56:08;93677.34;;;9.65;100.00
3968;BME280;9221;42.646;23.380;2023-04-03T13:58:35;93628.69;;;9.28;100.00
3968;BME280;9221;42.646;23.380;2023-04-03T14:01:17;93684.25;;;9.49;100.00
3968;BME280;9221;42.646;23.380;2023-04-03T14:06:16;93612.91;;;8.95;100.00
3968;BME280;9221;42.646;23.380;2023-04-03T14:08:43;93674.72;;;9.24;100.00
3968;BME280;9221;42.646;23.380;2023-04-03T14:11:18;93655.66;;;9.22;100.00
3968;BME280;9221;42.646;23.380;2023-04-03T14:13:47;93720.75;;;9.28;100.00
3968;BME280;9221;42.646;23.380;2023-04-03T14:16:19;93603.06;;;8.89;100.00
3968;BME280;9221;42.646;23.380;2023-04-03T14:18:45;93637.59;;;9.02;100.00
3968;BME280;9221;42.646;23.380;2023-04-03T14:21:13;93594.84;;;8.75;100.00
3968;BME280;9221;42.646;23.380;2023-04-03T14:23:39;93662.88;;;9.20;100.00
3968;BME280;9221;42.646;23.380;2023-04-03T14:26:13;93650.75;;;9.19;100.00
3968;BME280;9221;42.646;23.380;2023-04-03T14:28:38;93680.63;;;8.93;100.00
3968;BME280;9221;42.646;23.380;2023-04-03T14:31:05;93649.72;;;9.28;100.00
3968;BME280;9221;42.646;23.380;2023-04-03T14:33:32;93699.38;;;9.47;100.00
3968;BME280;9221;42.646;23.380;2023-04-03T14:36:00;93662.22;;;9.42;100.00
3968;BME280;9221;42.646;23.380;2023-04-03T14:38:30;93667.47;;;9.42;100.00
3968;BME280;9221;42.646;23.380;2023-04-03T14:40:57;93653.19;;;9.28;100.00
3968;BME280;9221;42.646;23.380;2023-04-03T14:43:22;93649.41;;;9.23;100.00
3968;BME280;9221;42.646;23.380;2023-04-03T14:45:49;93651.03;;;9.32;100.00
3968;BME280;9221;42.646;23.380;2023-04-03T14:48:19;93657.78;;;9.26;100.00
3968;BME280;9221;42.646;23.380;2023-04-03T14:50:46;93640.84;;;9.29;100.00
3968;BME280;9221;42.646;23.380;2023-04-03T14:53:12;93611.13;;;9.12;100.00
3968;BME280;9221;42.646;23.380;2023-04-03T14:55:44;93654.69;;;9.14;100.00
3968;BME280;9221;42.646;23.380;2023-04-03T14:58:19;93615.88;;;9.17;100.00
3968;BME280;9221;42.646;23.380;2023-04-03T15:00:45;93603.22;;;9.28;100.00
3968;BME280;9221;42.646;23.380;2023-04-03T15:03:19;93609.63;;;9.26;100.00
3968;BME280;9221;42.646;23.380;2023-04-03T15:05:46;93633.28;;;9.26;100.00
3968;BME280;9221;42.646;23.380;2023-04-03T15:08:20;93630.00;;;8.99;100.00
3968;BME280;9221;42.646;23.380;2023-04-03T15:10:47;93656.97;;;9.09;100.00
3968;BME280;9221;42.646;23.380;2023-04-03T15:13:12;93623.94;;;8.98;100.00
3968;BME280;9221;42.646;23.380;2023-04-03T15:15:38;93598.97;;;8.86;100.00
3968;BME280;9221;42.646;23.380;2023-04-03T15:18:04;93630.00;;;9.15;100.00
3968;BME280;9221;42.646;23.380;2023-04-03T15:20:30;93615.25;;;9.06;100.00
3968;BME280;9221;42.646;23.380;2023-04-03T15:22:59;93613.41;;;8.66;100.00